Terminal Aerodrome Forecast
Issued by NWS Topeka, KS

Home | Current Version | Previous Version | Text Only | Print | Product List | Glossary On
Versions: 1 2 3 4 5 6 7 8 9 10 11 12
000
FTUS43 KTOP 232300
TAFTOP
TAF
KTOP 232330Z 2400/2424 32010KT P6SM -RA OVC015
     FM240500 33014G21KT 4SM -RASN BR OVC008
     FM241200 32013G20KT P6SM OVC009
     FM241700 32012KT P6SM OVC018
     FM242300 29010KT P6SM SCT025=

USA.gov is the U.S. government's official web portal to all federal, state and local government web resources and services.